KLSV/LSV METAR and TAF weather

Enter ICAO airport designator
Station Type Date Time Source
KLSV METAR 2019/04/19 07:58 UTC NOAA

KLSV 190758Z 00000KT 10SM CLR 16/03 A3007 RMK AO2A SLP155 WND DATA ESTMD $


Station Type Date Time Source
KLSV Decoded METAR 2019/04/19 07:58 UTC NOAA

Nellis Air Force Base, NV, United States (KLSV) 36-14N 115-02W
Apr 19, 2019 - 03:58 AM EDT / 2019.04.19 0758 UTC
Wind: Calm:0
Visibility: 10 mile(s):0
Sky conditions: clear
Temperature: 60 F (16 C)
Dew Point: 37 F (3 C)
Relative Humidity: 41%
Pressure (altimeter): 30.07 in. Hg (1018 hPa)
ob: KLSV 190758Z 00000KT 10SM CLR 16/03 A3007 RMK AO2A SLP155 WND DATA ESTMD
cycle: 8

Station Type Date Time Source
KLSV TAF 2019/04/19 07:48 UTC NOAA

TAF TAF KLSV 190700Z 1907/2013 VRB06KT 9999 FEW220 QNH3005INS
BECMG 1916/1917 14009KT 9999 FEW230 QNH3004INS
BECMG 2001/2002 VRB06KT 9999 FEW220 QNH3001INS TX30/1922Z TN12/1913Z

Example: see airport list